WetterOnline ( https://www.wetteronline.de )

Wetter aktuell Fuchshofen

Aktuelles Wetter: Nürburg-Barweiler (488m)

6-stündlich | Neueste Meldungen
Ortszeit Temperatur Wetter
So, 05.07. 20:00 20.0° C wolkig
So, 05.07. 14:00 22.3° C wolkig
So, 05.07. 8:00 17.1° C bewölkt
So, 05.07. 2:00 17.0° C bedeckt
Sa, 04.07. 20:00 18.8° C wolkig
Sa, 04.07. 14:00 19.3° C bedeckt
Sa, 04.07. 8:00 13.8° C bedeckt
Sa, 04.07. 2:00 12.3° C bewölkt
Ortszeit Temperatur Wetter
So, 05.07. 23:00 17.8° C wolkenlos
So, 05.07. 22:30 18.2° C leicht bewölkt
So, 05.07. 22:20 18.2° C leicht bewölkt
So, 05.07. 22:10 18.3° C wolkig
So, 05.07. 22:00 18.5° C leicht bewölkt
So, 05.07. 21:50 18.5° C leicht bewölkt
So, 05.07. 21:30 18.5° C fast wolkenlos
So, 05.07. 21:00 19.1° C wolkenlos
So, 05.07. 19:00 19.9° C bedeckt
Ortszeit Relative Feuchte Sichtweite
So, 05.07. 20:00 72% 65 km
So, 05.07. 14:00 59% >70 km
So, 05.07. 8:00 85% 65 km
So, 05.07. 2:00 86% 45 km
Sa, 04.07. 20:00 62% 60 km
Sa, 04.07. 14:00 55% 55 km
Sa, 04.07. 8:00 71% 45 km
Sa, 04.07. 2:00 81% 55 km
Ortszeit Relative Feuchte Sichtweite
So, 05.07. 23:00 78% 65 km
So, 05.07. 22:30 77% >70 km
So, 05.07. 22:20 77% -
So, 05.07. 22:10 77% -
So, 05.07. 22:00 76% >70 km
So, 05.07. 21:50 76% -
So, 05.07. 21:30 76% 55 km
So, 05.07. 21:00 75% 60 km
So, 05.07. 19:00 77% >70 km
Ortszeit Niederschlagsmenge Niederschlagsart
So, 05.07. 20:00 0.1 l/m2 in 12 Std. Regen
So, 05.07. 14:00 0.1 l/m2 in 6 Std. Regen
So, 05.07. 8:00 0.1 l/m2 in 12 Std. Sprühregen
So, 05.07. 2:00 0.1 l/m2 in 6 Std. Regen
Sa, 04.07. 20:00 0.1 l/m2 in 12 Std. -
Sa, 04.07. 14:00 0.1 l/m2 in 6 Std. Regen
Sa, 04.07. 8:00 0.0 l/m2 in 12 Std. -
Sa, 04.07. 2:00 0.0 l/m2 in 6 Std. -
Ortszeit Niederschlagsmenge Niederschlagsart
So, 05.07. 23:00 0.0 l/m2 in 1 Std. -
So, 05.07. 22:30 0.0 l/m2 in 1 Std. -
So, 05.07. 22:20 keine Meldung -
So, 05.07. 22:10 keine Meldung -
So, 05.07. 22:00 0.0 l/m2 in 1 Std. -
So, 05.07. 21:50 keine Meldung -
So, 05.07. 21:30 0.0 l/m2 in 1 Std. -
So, 05.07. 21:00 0.0 l/m2 in 1 Std. -
So, 05.07. 19:00 keine Meldung -
Ortszeit Stärke Spitze Richtung
km/h Bft. km/h Grad Sektor
So, 05.07. 20:00 22 4 50 240° SW
So, 05.07. 14:00 25 4 54 240° SW
So, 05.07. 8:00 22 4 43 230° SW
So, 05.07. 2:00 20 4 39 230° SW
Sa, 04.07. 20:00 17 3 48 230° SW
Sa, 04.07. 14:00 20 4 39 230° SW
Sa, 04.07. 8:00 13 3 24 220° SW
Sa, 04.07. 2:00 11 2 22 210° SW
Ortszeit Stärke Spitze Richtung
km/h Bft. km/h Grad Sektor
So, 05.07. 23:00 13 3 33 240° SW
So, 05.07. 22:30 17 3 28 230° SW
So, 05.07. 22:20 17 3 - 230° SW
So, 05.07. 22:10 17 3 - 230° SW
So, 05.07. 22:00 18 3 36 230° SW
So, 05.07. 21:50 18 3 - 230° SW
So, 05.07. 21:30 18 3 32 230° SW
So, 05.07. 21:00 19 3 35 230° SW
So, 05.07. 19:00 18 3 43 230° SW
Ortszeit Untergrenze Bedeckung Gattung
total tief tief mittel hoch
So, 05.07. 20:00 720 m 5/8 5/8 - - -
So, 05.07. 14:00 840 m 6/8 6/8 - - -
So, 05.07. 8:00 360 m 7/8 7/8 - - -
So, 05.07. 2:00 330 m 8/8 8/8 - - -
Sa, 04.07. 20:00 960 m 7/8 5/8 - - -
Sa, 04.07. 14:00 1140 m 8/8 8/8 - - -
Sa, 04.07. 8:00 3300 m 8/8 8/8 - - -
Sa, 04.07. 2:00 6600 m 7/8 7/8 - - -
Ortszeit Bedeckungsgrad in Achtel und Wolkenuntergrenze
So, 05.07. 23:00 keine Wolken
So, 05.07. 22:30 3(720m)
So, 05.07. 22:20 3(720m)
So, 05.07. 22:10 4(750m) 5(930m) 5(2100m)
So, 05.07. 22:00 2(780m) 4(960m) 4(2100m)
So, 05.07. 21:50 2(780m) 4(960m) 4(1800m)
So, 05.07. 21:30 2(810m) 3(1800m)
So, 05.07. 21:00 keine Wolken
So, 05.07. 19:00 4(750m) 7(1320m) 8(1500m)
Ortszeit Luftdruck NN (hPa) Tendenz (hPa in 3 Std.)
So, 05.07. 20:00 1013 - 0,5
So, 05.07. 14:00 1013 - 0,8
So, 05.07. 8:00 1014 - 0,3
So, 05.07. 2:00 1015 - 0,7
Sa, 04.07. 20:00 1016 - 0,3
Sa, 04.07. 14:00 1016 - 0,2
Sa, 04.07. 8:00 1018 - 0,3
Sa, 04.07. 2:00 1020 0,0
Ortszeit Luftdruck NN (hPa) Tendenz (hPa in 3 Std.)
So, 05.07. 23:00 1012 - 0,7
So, 05.07. 22:30 1013 - 0,5
So, 05.07. 22:20 1013 keine Meldung
So, 05.07. 22:10 1012 keine Meldung
So, 05.07. 22:00 1012 - 0,7
So, 05.07. 21:50 1012 keine Meldung
So, 05.07. 21:30 1012 - 1,0
So, 05.07. 21:00 1012 - 0,8
So, 05.07. 19:00 1013 - 0,4
Ortszeit Schneehöhe (cm)
So, 05.07. 20:00 -
So, 05.07. 14:00 -
So, 05.07. 8:00 -
So, 05.07. 2:00 -
Sa, 04.07. 20:00 -
Sa, 04.07. 14:00 -
Sa, 04.07. 8:00 -
Sa, 04.07. 2:00 -
Ortszeit Schneehöhe (cm)
So, 05.07. 23:00 -
So, 05.07. 22:30 -
So, 05.07. 22:20 -
So, 05.07. 22:10 -
So, 05.07. 22:00 -
So, 05.07. 21:50 -
So, 05.07. 21:30 -
So, 05.07. 21:00 -
So, 05.07. 19:00 -
Link zu dieser Seite / Seite empfehlen

Das Wetter in ...